Time;durP1;ratioP1;P1;durP2;ratioP2;P2;SDS_P1;SDS_P2;PMS_P1;PMS_P2;Temp;Humidity;BMP_temperature;BMP_pressure;BME280_temperature;BME280_humidity;BME280_pressure;Samples;Min_cycle;Max_cycle;Signal;HPM_P1;HPM_P2
2021/07/06 00:01:07;;;;;;;2.47;1.75;;;;;;;;;;5023577;28;20371;-82
2021/07/06 00:03:33;;;;;;;3.53;1.17;;;;;;;;;;5025559;28;20034;-82
2021/07/06 00:05:59;;;;;;;2.40;1.00;;;;;;;;;;5026422;28;20552;-83
2021/07/06 00:08:25;;;;;;;6.20;1.75;;;;;;;;;;5028270;28;20168;-82
2021/07/06 00:10:51;;;;;;;1.40;1.00;;;;;;;;;;5028344;28;20052;-80
2021/07/06 00:13:18;;;;;;;2.75;1.27;;;;;;;;;;5024946;28;20029;-83
2021/07/06 00:15:44;;;;;;;2.15;1.45;;;;;;;;;;5024626;28;20030;-81
2021/07/06 00:18:10;;;;;;;1.65;0.90;;;;;;;;;;5028190;28;20030;-82
2021/07/06 00:20:36;;;;;;;2.80;1.10;;;;;;;;;;5029211;28;20041;-81
2021/07/06 00:23:03;;;;;;;9.23;1.25;;;;;;;;;;5025130;28;20530;-82
2021/07/06 00:25:30;;;;;;;1.55;0.80;;;;;;;;;;5025069;28;20123;-82
2021/07/06 00:27:56;;;;;;;1.20;0.90;;;;;;;;;;5028446;28;20035;-82
2021/07/06 00:30:23;;;;;;;3.43;1.40;;;20.10;70.40;;;;;;5028255;28;20025;-82
2021/07/06 00:32:49;;;;;;;1.88;1.10;;;;;;;;;;5009936;28;20307;-82
2021/07/06 00:35:16;;;;;;;4.00;1.17;;;;;;;;;;5024353;28;20054;-82
2021/07/06 00:37:42;;;;;;;4.65;0.88;;;;;;;;;;5027220;28;20612;-83
2021/07/06 00:40:08;;;;;;;1.92;1.00;;;;;;;;;;5028659;28;20030;-82
2021/07/06 00:42:39;;;;;;;4.47;1.08;;;;;;;;;;5025222;28;20421;-82
2021/07/06 00:45:05;;;;;;;1.27;0.95;;;;;;;;;;5024392;28;20479;-82
2021/07/06 00:47:32;;;;;;;0.98;0.82;;;;;;;;;;5027486;28;20037;-82
2021/07/06 00:49:58;;;;;;;0.85;0.60;;;;;;;;;;5012166;28;20083;-82
2021/07/06 00:52:25;;;;;;;0.85;0.80;;;;;;;;;;5025912;28;20053;-82
2021/07/06 00:54:50;;;;;;;1.10;0.70;;;;;;;;;;5017456;28;20059;-81
2021/07/06 00:57:17;;;;;;;1.55;1.02;;;;;;;;;;5025495;28;20083;-81
2021/07/06 00:59:43;;;;;;;6.80;0.93;;;;;;;;;;5027059;28;20038;-83
2021/07/06 01:02:09;;;;;;;1.48;1.00;;;;;;;;;;5020431;28;20029;-81
2021/07/06 01:04:35;;;;;;;1.17;0.73;;;;;;;;;;5027576;28;20490;-81
2021/07/06 01:07:01;;;;;;;4.85;0.90;;;;;;;;;;5024343;28;20057;-81
2021/07/06 01:09:26;;;;;;;1.08;0.80;;;;;;;;;;5012369;28;20021;-82
2021/07/06 01:11:53;;;;;;;1.63;0.73;;;;;;;;;;5024898;28;20783;-82
2021/07/06 01:14:19;;;;;;;2.17;1.10;;;;;;;;;;5026422;28;20112;-82
2021/07/06 01:16:45;;;;;;;2.75;1.40;;;21.10;62.70;;;;;;5023585;28;20520;-82
2021/07/06 01:19:14;;;;;;;1.67;0.90;;;;;;;;;;5028638;28;20022;-82
2021/07/06 01:21:40;;;;;;;5.82;0.93;;;;;;;;;;5024254;28;20044;-82
2021/07/06 01:24:06;;;;;;;3.88;0.70;;;;;;;;;;5027665;28;20079;-82
2021/07/06 01:26:32;;;;;;;3.95;0.77;;;;;;;;;;5022310;28;20060;-82
2021/07/06 01:28:58;;;;;;;2.35;1.60;;;;;;;;;;5026461;28;20518;-82
2021/07/06 01:31:24;;;;;;;7.85;1.90;;;;;;;;;;5024289;28;20104;-82
2021/07/06 01:33:50;;;;;;;2.50;1.30;;;;;;;;;;5026789;28;20094;-81
2021/07/06 01:36:18;;;;;;;1.35;1.08;;;;;;;;;;5021996;28;20041;-81
2021/07/06 01:38:44;;;;;;;1.38;0.90;;;;;;;;;;5027053;28;20431;-83
2021/07/06 01:41:10;;;;;;;3.28;1.00;;;;;;;;;;5026576;28;20029;-82
2021/07/06 01:43:36;;;;;;;6.97;1.10;;;;;;;;;;5024903;28;20548;-82
2021/07/06 01:46:03;;;;;;;1.92;1.10;;;;;;;;;;5022606;28;20033;-82
2021/07/06 01:48:29;;;;;;;1.73;0.77;;;;;;;;;;5026309;28;20031;-81
2021/07/06 01:50:55;;;;;;;1.00;0.55;;;;;;;;;;5026383;28;20101;-82
2021/07/06 01:53:22;;;;;;;6.93;1.45;;;;;;;;;;5024939;28;20379;-82
2021/07/06 01:55:49;;;;;;;3.97;0.63;;;;;;;;;;5023200;28;20534;-81
2021/07/06 01:58:16;;;;;;;1.42;0.55;;;;;;;;;;5027083;28;20033;-83
2021/07/06 02:00:43;;;;;;;0.90;0.52;;;;;;;;;;5023971;28;20038;-82
2021/07/06 02:03:11;;;;;;;1.33;0.75;;;;;;;;;;5023217;28;20383;-82
2021/07/06 02:05:40;;;;;;;2.40;0.55;;;;;;;;;;5023204;28;20111;-82
2021/07/06 02:08:25;;;;;;;1.02;0.82;;;;;;;;;;5025880;28;20035;-82
2021/07/06 02:10:52;;;;;;;2.58;0.70;;;;;;;;;;5026113;28;20071;-81
2021/07/06 02:13:22;;;;;;;1.27;0.70;;;21.20;62.70;;;;;;5021684;28;20037;-82
2021/07/06 02:15:49;;;;;;;2.15;1.25;;;;;;;;;;5022886;28;20065;-82
2021/07/06 02:18:19;;;;;;;0.90;0.70;;;21.20;61.90;;;;;;5025648;28;20049;-82
2021/07/06 02:20:46;;;;;;;1.38;0.73;;;;;;;;;;5026793;28;20088;-82
2021/07/06 02:23:12;;;;;;;1.73;0.80;;;;;;;;;;5022703;28;20421;-82
2021/07/06 02:25:39;;;;;;;1.63;1.08;;;;;;;;;;5021675;28;20033;-81
2021/07/06 02:28:05;;;;;;;1.98;0.93;;;;;;;;;;5025766;28;20505;-82
2021/07/06 02:30:31;;;;;;;1.85;1.20;;;;;;;;;;5020967;28;20483;-81
2021/07/06 02:32:57;;;;;;;3.40;1.10;;;;;;;;;;5022810;28;20037;-82
2021/07/06 02:35:26;;;;;;;1.25;0.93;;;;;;;;;;5022836;28;20049;-81
2021/07/06 02:37:53;;;;;;;1.42;1.17;;;;;;;;;;5023323;28;20065;-82
2021/07/06 02:40:19;;;;;;;1.73;1.17;;;;;;;;;;5027600;28;20047;-82
2021/07/06 02:42:45;;;;;;;2.33;0.90;;;;;;;;;;5022222;28;20040;-82
2021/07/06 02:45:13;;;;;;;2.65;1.50;;;;;;;;;;5022860;28;20060;-82
2021/07/06 02:47:39;;;;;;;1.88;0.93;;;;;;;;;;5024256;28;20449;-82
2021/07/06 02:50:07;;;;;;;2.03;1.15;;;;;;;;;;5026156;28;20040;-83
2021/07/06 02:52:33;;;;;;;3.53;1.15;;;;;;;;;;5023026;28;20033;-83
2021/07/06 02:54:59;;;;;;;3.65;1.70;;;;;;;;;;5024725;28;20026;-83
2021/07/06 02:57:34;;;;;;;2.17;1.50;;;;;;;;;;5023700;28;20061;-82
2021/07/06 03:00:01;;;;;;;1.73;1.45;;;;;;;;;;5023217;28;20017;-82
2021/07/06 03:02:27;;;;;;;1.30;1.20;;;;;;;;;;5023492;28;20029;-82
2021/07/06 03:04:53;;;;;;;4.43;1.42;;;;;;;;;;5024346;28;20104;-83
2021/07/06 03:07:19;;;;;;;2.85;1.80;;;;;;;;;;5023965;28;20039;-83
2021/07/06 03:09:45;;;;;;;2.60;2.08;;;;;;;;;;5025106;28;20028;-82
2021/07/06 03:12:11;;;;;;;2.60;1.65;;;;;;;;;;5021913;28;20046;-82
2021/07/06 03:14:37;;;;;;;3.08;1.80;;;;;;;;;;5025222;28;20505;-82
2021/07/06 03:17:03;;;;;;;4.90;1.60;;;;;;;;;;5020904;28;20033;-84
2021/07/06 03:19:29;;;;;;;2.25;1.35;;;;;;;;;;5025463;28;20033;-83
2021/07/06 03:21:55;;;;;;;2.67;1.75;;;;;;;;;;5023142;28;20029;-82
2021/07/06 03:24:21;;;;;;;1.40;1.02;;;;;;;;;;5024186;28;20048;-83
2021/07/06 03:26:47;;;;;;;2.47;1.20;;;;;;;;;;5024819;28;20040;-82
2021/07/06 03:29:13;;;;;;;3.17;1.83;;;;;;;;;;5020376;28;20029;-82
2021/07/06 03:31:39;;;;;;;1.90;1.20;;;;;;;;;;5026605;28;20061;-83
2021/07/06 03:34:05;;;;;;;1.88;1.40;;;;;;;;;;5030134;28;20021;-82
2021/07/06 03:36:31;;;;;;;2.55;1.50;;;;;;;;;;5024547;28;20123;-82
2021/07/06 03:38:57;;;;;;;1.60;1.30;;;;;;;;;;5028614;28;20033;-81
2021/07/06 03:41:23;;;;;;;2.25;1.30;;;;;;;;;;5027629;28;20029;-83
2021/07/06 03:43:49;;;;;;;3.63;1.40;;;;;;;;;;5028553;28;20448;-82
2021/07/06 03:46:15;;;;;;;5.88;1.85;;;;;;;;;;5025704;28;20026;-82
2021/07/06 03:48:41;;;;;;;2.45;1.50;;;;;;;;;;5028090;28;20531;-82
2021/07/06 03:51:07;;;;;;;3.90;1.90;;;;;;;;;;5028598;28;20021;-82
2021/07/06 03:53:33;;;;;;;3.35;1.60;;;;;;;;;;5020877;28;20132;-82
2021/07/06 03:55:59;;;;;;;3.50;2.75;;;;;;;;;;5024375;28;20375;-82
2021/07/06 03:58:25;;;;;;;2.60;1.75;;;;;;;;;;5029344;28;20040;-82
2021/07/06 04:00:51;;;;;;;3.90;1.77;;;;;;;;;;5025779;28;20052;-81
2021/07/06 04:03:17;;;;;;;2.75;1.48;;;;;;;;;;5026225;28;20044;-83
2021/07/06 04:05:43;;;;;;;3.45;1.67;;;;;;;;;;5024683;28;20029;-82
2021/07/06 04:08:09;;;;;;;3.75;1.60;;;;;;;;;;5028963;28;20513;-82
2021/07/06 04:10:35;;;;;;;2.28;1.50;;;;;;;;;;5028686;28;20026;-82
2021/07/06 04:13:01;;;;;;;3.63;1.85;;;;;;;;;;5025683;28;20033;-83
2021/07/06 04:15:27;;;;;;;6.00;2.05;;;;;;;;;;5006318;28;20113;-83
2021/07/06 04:17:53;;;;;;;2.90;1.40;;;;;;;;;;5028842;28;20022;-82
2021/07/06 04:20:19;;;;;;;2.55;1.60;;;;;;;;;;5028587;28;20021;-82
2021/07/06 04:22:47;;;;;;;3.65;2.10;;;;;;;;;;5025360;28;20512;-82
2021/07/06 04:25:13;;;;;;;3.17;2.28;;;;;;;;;;5025395;28;20025;-83
2021/07/06 04:27:39;;;;;;;6.65;1.75;;;;;;;;;;5027345;28;20494;-81
2021/07/06 04:30:07;;;;;;;4.78;2.00;;;;;;;;;;5028524;28;20033;-82
2021/07/06 04:32:32;;;;;;;;;;;20.90;75.30;;;;;;5015558;28;20084;-83
2021/07/06 04:34:58;;;;;;;4.70;1.67;;;;;;;;;;5025102;28;19917;-83
2021/07/06 04:37:24;;;;;;;3.22;2.20;;;;;;;;;;5025631;28;20676;-83
2021/07/06 04:39:50;;;;;;;5.47;2.13;;;;;;;;;;5017468;28;20037;-84
2021/07/06 04:42:16;;;;;;;4.90;2.15;;;;;;;;;;5025581;28;20056;-84
2021/07/06 04:44:43;;;;;;;2.40;2.20;;;;;;;;;;5027253;28;20041;-83
2021/07/06 04:47:09;;;;;;;2.70;1.80;;;;;;;;;;5023169;28;20028;-84
2021/07/06 04:49:35;;;;;;;3.50;1.70;;;;;;;;;;5020741;28;20029;-82
2021/07/06 04:52:02;;;;;;;6.80;2.75;;;;;;;;;;5026015;28;20047;-83
2021/07/06 04:54:28;;;;;;;3.72;2.17;;;;;;;;;;5027320;28;20030;-83
2021/07/06 04:56:54;;;;;;;4.88;2.40;;;;;;;;;;5023753;28;20611;-83
2021/07/06 04:59:21;;;;;;;5.78;2.20;;;;;;;;;;5027313;28;20047;-83
2021/07/06 05:01:47;;;;;;;3.92;2.45;;;;;;;;;;5025686;28;20418;-82
2021/07/06 05:04:14;;;;;;;5.45;1.92;;;;;;;;;;5027118;28;20026;-83
2021/07/06 05:06:41;;;;;;;12.77;2.33;;;;;;;;;;5011864;28;20041;-83
2021/07/06 05:09:07;;;;;;;4.47;2.15;;;;;;;;;;5027690;28;20033;-81
2021/07/06 05:11:33;;;;;;;6.70;2.38;;;;;;;;;;5024979;28;20053;-82
2021/07/06 05:13:59;;;;;;;10.40;3.30;;;;;;;;;;5025895;28;20095;-83
2021/07/06 05:16:25;;;;;;;3.90;2.75;;;;;;;;;;5024250;28;20022;-83
2021/07/06 05:18:51;;;;;;;4.68;2.65;;;;;;;;;;5027658;28;20033;-82
2021/07/06 05:21:17;;;;;;;4.47;2.25;;;;;;;;;;5026962;28;20490;-83
2021/07/06 05:23:44;;;;;;;8.38;2.55;;;;;;;;;;5012432;28;20033;-83
2021/07/06 05:26:10;;;;;;;3.85;2.33;;;;;;;;;;5024403;28;20028;-82
2021/07/06 05:28:36;;;;;;;7.63;2.15;;;;;;;;;;5026666;28;20025;-82
2021/07/06 05:31:04;;;;;;;6.43;2.58;;;;;;;;;;5028255;28;20079;-83
2021/07/06 05:33:30;;;;;;;5.22;2.15;;;;;;;;;;5023385;28;20116;-82
2021/07/06 05:35:56;;;;;;;4.18;2.85;;;;;;;;;;5022770;28;20144;-83
2021/07/06 05:38:22;;;;;;;4.93;2.28;;;;;;;;;;5024890;28;20037;-83
2021/07/06 05:40:54;;;;;;;3.58;2.47;;;;;;;;;;5026573;28;20025;-83
2021/07/06 05:43:20;;;;;;;4.22;2.20;;;;;;;;;;5022957;28;20111;-82
2021/07/06 05:45:49;;;;;;;;;;;20.40;81.70;;;;;;5022739;28;20526;-83
2021/07/06 05:48:16;;;;;;;4.88;2.38;;;;;;;;;;5023711;28;20011;-83
2021/07/06 05:50:42;;;;;;;2.85;1.95;;;;;;;;;;5026400;28;20069;-83
2021/07/06 05:53:10;;;;;;;4.97;1.73;;;;;;;;;;5026321;28;20065;-84
2021/07/06 05:55:36;;;;;;;5.90;2.58;;;;;;;;;;5026964;28;20041;-83
2021/07/06 05:58:02;;;;;;;2.33;1.45;;;;;;;;;;5010263;28;20622;-83
2021/07/06 06:00:28;;;;;;;4.78;1.58;;;;;;;;;;5026441;28;20486;-83
2021/07/06 06:02:54;;;;;;;4.85;1.77;;;;;;;;;;5026465;28;20025;-83
2021/07/06 06:05:21;;;;;;;3.20;1.38;;;;;;;;;;5026237;28;20029;-83
2021/07/06 06:07:48;;;;;;;2.65;1.00;;;;;;;;;;5026849;28;20044;-84
2021/07/06 06:10:15;;;;;;;1.23;0.93;;;;;;;;;;5010641;28;20067;-83
2021/07/06 06:12:41;;;;;;;5.75;1.35;;;;;;;;;;5026955;28;20643;-83
2021/07/06 06:15:08;;;;;;;2.75;0.90;;;;;;;;;;5008984;28;20133;-84
2021/07/06 06:17:34;;;;;;;0.70;0.55;;;;;;;;;;5027148;28;20029;-82
2021/07/06 06:20:00;;;;;;;3.03;1.02;;;;;;;;;;5027307;28;20025;-83
2021/07/06 06:22:26;;;;;;;2.63;1.60;;;;;;;;;;5027159;28;20021;-82
2021/07/06 06:24:52;;;;;;;0.95;0.75;;;;;;;;;;5027653;28;20048;-83
2021/07/06 06:27:18;;;;;;;5.45;1.35;;;;;;;;;;5026923;28;20029;-83
2021/07/06 06:29:44;;;;;;;2.70;1.00;;;;;;;;;;5008769;28;20028;-76
2021/07/06 06:32:10;;;;;;;1.67;0.98;;;;;;;;;;5026140;28;20041;-77
2021/07/06 06:34:36;;;;;;;1.42;0.70;;;;;;;;;;5026484;28;20035;-77
2021/07/06 06:37:02;;;;;;;1.83;0.82;;;;;;;;;;5026695;28;20464;-76
2021/07/06 06:39:28;;;;;;;0.65;0.57;;;;;;;;;;5026880;28;20554;-76
2021/07/06 06:41:54;;;;;;;0.93;0.68;;;;;;;;;;5040210;28;20132;-77
2021/07/06 06:44:20;;;;;;;1.17;0.73;;;;;;;;;;5046570;28;20022;-77
2021/07/06 06:46:46;;;;;;;0.50;0.50;;;;;;;;;;5046725;28;20029;-77
2021/07/06 06:49:13;;;;;;;1.02;0.50;;;;;;;;;;5047402;28;20091;-76
2021/07/06 06:51:39;;;;;;;1.10;0.80;;;;;;;;;;5045603;28;20505;-83
2021/07/06 06:54:05;;;;;;;1.42;0.60;;;;;;;;;;5025356;28;20040;-84
2021/07/06 06:56:31;;;;;;;2.13;1.02;;;;;;;;;;5046295;28;20471;-84
2021/07/06 06:58:58;;;;;;;1.27;0.50;;;;;;;;;;5045923;28;20111;-83
2021/07/06 07:01:24;;;;;;;0.70;0.70;;;;;;;;;;5051515;28;20586;-84
2021/07/06 07:03:50;;;;;;;1.67;0.95;;;;;;;;;;5049662;28;20075;-84
2021/07/06 07:06:16;;;;;;;1.10;0.60;;;;;;;;;;5029844;28;20025;-84
2021/07/06 07:08:42;;;;;;;1.02;0.73;;;;;;;;;;5032541;28;20497;-83
2021/07/06 07:11:08;;;;;;;1.92;0.43;;;;;;;;;;5050165;28;20044;-83
2021/07/06 07:13:34;;;;;;;6.07;1.15;;;;;;;;;;5030294;28;20036;-84
2021/07/06 07:16:00;;;;;;;3.65;0.50;;;;;;;;;;5050469;28;20505;-84
2021/07/06 07:18:26;;;;;;;2.05;0.70;;;;;;;;;;5049700;28;20032;-85
2021/07/06 07:20:52;;;;;;;0.90;0.52;;;;;;;;;;5049970;28;20029;-84
2021/07/06 07:23:18;;;;;;;0.77;0.47;;;;;;;;;;5032106;28;20060;-84
2021/07/06 07:25:44;;;;;;;1.75;0.73;;;;;;;;;;5048899;28;20043;-84
2021/07/06 07:28:10;;;;;;;1.15;0.73;;;;;;;;;;5049343;28;20048;-84
2021/07/06 07:30:36;;;;;;;0.88;0.77;;;;;;;;;;5047433;28;20029;-90
2021/07/06 07:33:02;;;;;;;0.50;0.50;;;;;;;;;;5045517;28;20467;-87
2021/07/06 07:35:28;;;;;;;1.00;0.93;;;;;;;;;;5030156;28;20041;-88
2021/07/06 07:37:54;;;;;;;0.85;0.50;;;;;;;;;;5038249;28;20128;-88
2021/07/06 07:40:20;;;;;;;1.85;0.60;;;;;;;;;;5048798;28;20056;-83
2021/07/06 07:42:48;;;;;;;7.85;1.10;;;;;;;;;;5049788;28;20037;-84
2021/07/06 07:45:14;;;;;;;0.88;0.60;;;;;;;;;;5049993;28;20025;-84
2021/07/06 07:47:40;;;;;;;1.20;0.65;;;;;;;;;;5028669;28;20062;-85
2021/07/06 07:50:07;;;;;;;0.52;0.40;;;;;;;;;;5048787;28;20040;-84
2021/07/06 07:52:34;;;;;;;1.73;0.95;;;;;;;;;;5046619;28;20458;-84
2021/07/06 07:55:04;;;;;;;1.10;0.70;;;20.40;78.80;;;;;;5048929;28;20040;-84
2021/07/06 07:57:30;;;;;;;1.33;0.95;;;20.30;78.60;;;;;;5048537;28;20067;-84
2021/07/06 07:59:56;;;;;;;1.73;0.90;;;;;;;;;;5049434;28;20411;-84
2021/07/06 08:02:23;;;;;;;1.58;0.85;;;;;;;;;;5049190;28;20029;-83
2021/07/06 08:04:50;;;;;;;1.10;0.90;;;;;;;;;;5049176;28;20028;-84
2021/07/06 08:07:16;;;;;;;1.20;0.57;;;;;;;;;;5050085;28;20056;-83
2021/07/06 08:09:42;;;;;;;5.50;0.70;;;;;;;;;;5049479;28;20512;-84
2021/07/06 08:12:09;;;;;;;3.78;0.75;;;;;;;;;;5046833;28;20041;-84
2021/07/06 08:14:35;;;;;;;4.03;0.88;;;;;;;;;;5050521;28;20040;-86
2021/07/06 08:17:01;;;;;;;1.48;0.73;;;;;;;;;;5049857;28;20560;-85
2021/07/06 08:19:28;;;;;;;1.17;0.40;;;;;;;;;;5049747;28;20029;-85
2021/07/06 08:21:55;;;;;;;4.28;0.95;;;;;;;;;;5047542;28;20548;-84
2021/07/06 08:24:21;;;;;;;2.08;0.90;;;;;;;;;;5048876;28;20545;-84
2021/07/06 08:26:47;;;;;;;1.55;0.80;;;;;;;;;;5048774;28;20029;-84
2021/07/06 08:29:13;;;;;;;1.30;0.70;;;;;;;;;;5048594;28;20036;-88
2021/07/06 08:31:39;;;;;;;0.88;0.52;;;;;;;;;;5049483;28;20494;-87
2021/07/06 08:34:05;;;;;;;1.05;0.73;;;;;;;;;;5050891;28;20577;-84
2021/07/06 08:36:31;;;;;;;2.58;0.52;;;;;;;;;;5030896;28;20140;-85
2021/07/06 08:38:57;;;;;;;5.65;1.10;;;;;;;;;;5050137;28;20033;-88
2021/07/06 08:41:24;;;;;;;4.72;0.80;;;;;;;;;;5050108;28;20564;-87
2021/07/06 08:43:50;;;;;;;1.88;0.90;;;;;;;;;;5049497;28;20294;-85
2021/07/06 08:46:18;;;;;;;1.48;0.65;;;;;;;;;;5050088;28;20025;-85
2021/07/06 08:48:45;;;;;;;1.42;0.70;;;;;;;;;;5048730;28;20029;-86
2021/07/06 08:51:11;;;;;;;4.75;0.68;;;;;;;;;;5042298;28;20068;-87
2021/07/06 08:53:37;;;;;;;4.07;0.90;;;;;;;;;;5038831;28;20069;-84
2021/07/06 08:56:03;;;;;;;2.75;0.73;;;;;;;;;;5030084;28;20763;-85
2021/07/06 08:58:29;;;;;;;3.13;0.68;;;;;;;;;;5049185;28;20032;-86
2021/07/06 09:00:55;;;;;;;2.15;1.00;;;;;;;;;;5049710;28;20056;-85
2021/07/06 09:03:21;;;;;;;4.15;1.50;;;;;;;;;;5049036;28;20033;-88
2021/07/06 09:05:48;;;;;;;1.05;0.70;;;;;;;;;;5048573;28;20033;-83
2021/07/06 09:08:17;;;;;;;1.67;0.45;;;;;;;;;;5028429;28;20485;-85
2021/07/06 09:10:43;;;;;;;1.20;0.60;;;;;;;;;;5049011;28;20433;-88
2021/07/06 09:13:19;;;;;;;0.85;0.65;;;;;;;;;;5050758;28;20063;-87
2021/07/06 09:15:52;;;;;;;4.22;0.65;;;;;;;;;;5050504;28;20033;-88
2021/07/06 09:18:20;;;;;;;1.15;0.60;;;;;;;;;;5048009;28;20033;-89
2021/07/06 09:21:22;;;;;;;1.33;0.60;;;;;;;;;;5050871;28;20032;-87
2021/07/06 09:23:54;;;;;;;0.45;0.45;;;;;;;;;;4979921;28;20034;-86
2021/07/06 09:26:25;;;;;;;0.43;0.32;;;;;;;;;;4983647;28;20119;-87
2021/07/06 09:28:52;;;;;;;1.40;0.73;;;;;;;;;;4986286;28;20035;-88
2021/07/06 09:31:25;;;;;;;0.40;0.30;;;;;;;;;;4985661;28;20421;-90
2021/07/06 09:33:51;;;;;;;0.80;0.73;;;;;;;;;;4986877;28;20049;-88
2021/07/06 09:36:27;;;;;;;1.23;0.60;;;;;;;;;;4985481;28;20050;-85
2021/07/06 09:39:00;;;;;;;0.93;0.43;;;;;;;;;;4985871;28;20034;-87
2021/07/06 09:41:26;;;;;;;1.15;0.45;;;;;;;;;;4984523;28;20044;-87
2021/07/06 09:43:52;;;;;;;2.15;0.57;;;;;;;;;;4984888;28;20066;-89
2021/07/06 09:46:18;;;;;;;0.63;0.35;;;;;;;;;;4971418;28;20061;-86
2021/07/06 09:48:47;;;;;;;0.63;0.47;;;;;;;;;;4983159;28;20034;-86
2021/07/06 09:51:15;;;;;;;1.95;0.70;;;;;;;;;;4986564;28;20043;-88
2021/07/06 09:53:42;;;;;;;1.30;0.32;;;;;;;;;;4969884;28;20077;-87
2021/07/06 09:56:18;;;;;;;0.35;0.30;;;20.90;76.40;;;;;;4981477;28;20026;-85
2021/07/06 09:58:51;;;;;;;1.13;0.70;;;;;;;;;;5023972;28;20073;-85
2021/07/06 10:01:17;;;;;;;1.27;0.47;;;;;;;;;;5028460;28;20030;-84
2021/07/06 10:03:43;;;;;;;1.30;0.60;;;20.90;76.90;;;;;;5026453;28;20026;-85
2021/07/06 10:06:10;;;;;;;0.47;0.43;;;;;;;;;;5027065;28;20390;-85
2021/07/06 10:08:36;;;;;;;1.30;0.52;;;;;;;;;;5023581;28;20030;-85
2021/07/06 10:11:02;;;;;;;1.27;1.17;;;;;;;;;;5027214;28;20060;-85
2021/07/06 10:13:28;;;;;;;1.70;0.50;;;;;;;;;;5026238;28;20180;-85
2021/07/06 10:15:54;;;;;;;1.35;0.60;;;;;;;;;;5028227;28;20112;-84
2021/07/06 10:18:21;;;;;;;2.15;0.55;;;;;;;;;;5027036;28;20021;-86
2021/07/06 10:20:47;;;;;;;0.30;0.22;;;;;;;;;;5027502;28;20033;-84
2021/07/06 10:23:14;;;;;;;2.15;0.65;;;;;;;;;;5026999;28;20021;-84
2021/07/06 10:25:40;;;;;;;1.75;0.68;;;;;;;;;;5027347;28;20530;-85
2021/07/06 10:28:07;;;;;;;1.70;0.65;;;;;;;;;;5028221;28;20036;-85
2021/07/06 10:30:46;;;;;;;2.38;0.80;;;;;;;;;;5027961;28;20037;-86
2021/07/06 10:33:16;;;;;;;0.95;0.60;;;;;;;;;;5026434;28;20132;-86
2021/07/06 10:35:46;;;;;;;0.75;0.60;;;20.80;76.40;;;;;;5033064;28;20106;-87
2021/07/06 10:38:31;;;;;;;2.53;0.43;;;;;;;;;;5047750;28;20063;-85
2021/07/06 10:40:58;;;;;;;0.77;0.60;;;;;;;;;;5046984;28;20078;-85
2021/07/06 10:43:44;;;;;;;0.95;0.50;;;;;;;;;;5047573;28;20032;-85
2021/07/06 10:46:22;;;;;;;1.17;0.60;;;;;;;;;;5035816;28;20123;-86
2021/07/06 10:49:08;;;;;;;0.43;0.40;;;20.80;76.20;;;;;;5045515;28;20795;-85
2021/07/06 10:51:34;;;;;;;1.23;0.85;;;;;;;;;;5045095;28;20095;-83
2021/07/06 10:54:16;;;;;;;1.15;0.50;;;20.60;77.00;;;;;;5046718;28;20120;-85
2021/07/06 10:56:46;;;;;;;0.73;0.68;;;;;;;;;;5047657;28;20037;-88
2021/07/06 10:59:21;;;;;;;0.90;0.55;;;;;;;;;;5026359;28;20029;-88
2021/07/06 11:01:54;;;;;;;0.80;0.47;;;;;;;;;;5047711;28;20033;-84
2021/07/06 11:04:51;;;;;;;2.60;0.40;;;;;;;;;;5047845;28;20040;-86
2021/07/06 11:07:42;;;;;;;2.72;0.68;;;;;;;;;;5048138;28;20116;-88
2021/07/06 11:10:08;;;;;;;4.30;0.60;;;;;;;;;;5047947;28;20418;-87
2021/07/06 11:12:38;;;;;;;2.92;1.05;;;;;;;;;;5047403;28;20349;-88
2021/07/06 11:15:06;;;;;;;4.45;0.68;;;;;;;;;;5047642;28;20056;-85
2021/07/06 11:17:35;;;;;;;3.35;0.50;;;;;;;;;;5046115;28;20040;-84
2021/07/06 11:20:02;;;;;;;1.55;0.75;;;;;;;;;;5046718;28;20022;-88
2021/07/06 11:22:40;;;;;;;1.25;0.50;;;;;;;;;;5047653;28;20490;-87
2021/07/06 11:25:20;;;;;;;0.77;0.50;;;;;;;;;;5029727;28;20040;-86
2021/07/06 11:27:58;;;;;;;0.95;0.77;;;;;;;;;;5044019;28;20025;-85
2021/07/06 11:30:27;;;;;;;0.70;0.60;;;;;;;;;;5018455;28;20061;-85
2021/07/06 11:33:07;;;;;;;3.85;0.70;;;;;;;;;;5040307;28;20036;-88
2021/07/06 11:35:35;;;;;;;0.95;0.50;;;;;;;;;;5047989;28;20048;-88
2021/07/06 11:38:03;;;;;;;;;;;20.30;78.80;;;;;;5048069;28;20029;-87
2021/07/06 11:40:29;;;;;;;0.65;0.63;;;;;;;;;;5046649;28;19932;-85
2021/07/06 11:42:55;;;;;;;0.65;0.43;;;;;;;;;;5047055;28;20460;-84
2021/07/06 11:45:21;;;;;;;2.15;0.50;;;;;;;;;;5025675;28;20032;-83
2021/07/06 11:47:47;;;;;;;4.95;0.55;;;;;;;;;;5048415;28;20024;-83
2021/07/06 11:50:27;;;;;;;1.27;0.60;;;;;;;;;;5050140;28;20041;-83
2021/07/06 11:52:53;;;;;;;1.48;0.60;;;;;;;;;;5048676;28;20120;-84
2021/07/06 11:55:26;;;;;;;0.40;0.40;;;;;;;;;;5050406;28;20036;-84
2021/07/06 11:57:59;;;;;;;0.77;0.50;;;;;;;;;;5049889;28;20033;-88
2021/07/06 12:00:26;;;;;;;0.40;0.30;;;;;;;;;;5050081;28;20025;-85
2021/07/06 12:03:12;;;;;;;0.40;0.40;;;;;;;;;;5050404;28;20523;-87
2021/07/06 12:05:38;;;;;;;0.57;0.38;;;;;;;;;;5049095;28;20037;-83
2021/07/06 12:08:20;;;;;;;1.05;0.60;;;;;;;;;;5049427;28;20074;-83
2021/07/06 12:10:58;;;;;;;3.92;0.60;;;20.00;78.50;;;;;;5049618;28;20033;-83
2021/07/06 12:13:25;;;;;;;0.30;0.30;;;;;;;;;;5048361;28;20067;-83
2021/07/06 12:15:52;;;;;;;0.77;0.40;;;;;;;;;;5049173;28;20025;-83
2021/07/06 12:18:18;;;;;;;1.38;0.63;;;;;;;;;;5049179;28;20087;-82
2021/07/06 12:20:53;;;;;;;1.10;0.50;;;19.80;76.10;;;;;;5028675;28;20032;-82
2021/07/06 12:23:20;;;;;;;0.50;0.38;;;;;;;;;;5049301;28;20441;-87
2021/07/06 12:25:46;;;;;;;1.88;0.93;;;;;;;;;;5031740;28;20041;-81
2021/07/06 12:28:12;;;;;;;0.40;0.30;;;;;;;;;;5050899;28;20025;-82
2021/07/06 12:30:38;;;;;;;0.85;0.50;;;;;;;;;;5049666;28;20036;-82
2021/07/06 12:33:08;;;;;;;1.20;0.60;;;;;;;;;;5049504;28;20028;-81
2021/07/06 12:35:34;;;;;;;2.10;0.90;;;;;;;;;;5049268;28;20432;-81
2021/07/06 12:38:02;;;;;;;0.35;0.35;;;19.30;78.90;;;;;;5049573;28;20108;-82
2021/07/06 12:40:29;;;;;;;2.45;1.02;;;;;;;;;;5050662;28;20032;-82
2021/07/06 12:42:56;;;;;;;3.30;1.15;;;;;;;;;;5050370;28;20104;-82
2021/07/06 12:45:22;;;;;;;1.50;1.30;;;;;;;;;;5050160;28;20032;-83
2021/07/06 12:47:48;;;;;;;1.85;1.08;;;;;;;;;;5050252;28;20071;-72
2021/07/06 12:50:17;;;;;;;3.13;1.35;;;19.70;85.20;;;;;;5050006;28;20037;-82
2021/07/06 12:52:44;;;;;;;0.73;0.70;;;19.60;76.90;;;;;;5049951;28;20068;-83
2021/07/06 12:55:15;;;;;;;1.60;0.60;;;19.50;77.30;;;;;;5051049;28;20025;-82
2021/07/06 12:57:42;;;;;;;0.93;0.50;;;;;;;;;;5049182;28;20029;-83
2021/07/06 13:00:21;;;;;;;3.97;0.60;;;19.40;77.10;;;;;;5049586;28;20035;-82
2021/07/06 13:02:49;;;;;;;1.45;0.80;;;;;;;;;;5049995;28;20501;-82
2021/07/06 13:05:22;;;;;;;1.08;0.70;;;;;;;;;;5049516;28;20497;-82
2021/07/06 13:07:48;;;;;;;0.70;0.50;;;;;;;;;;5049961;28;20140;-82
2021/07/06 13:10:14;;;;;;;0.68;0.50;;;;;;;;;;5050440;28;20108;-82
2021/07/06 13:12:42;;;;;;;1.23;0.60;;;;;;;;;;5048952;28;20086;-82
2021/07/06 13:15:11;;;;;;;1.05;0.60;;;19.60;78.40;;;;;;5049365;28;20032;-82
2021/07/06 13:17:45;;;;;;;3.72;0.57;;;19.60;78.30;;;;;;5049698;28;20124;-82
2021/07/06 13:20:14;;;;;;;0.30;0.30;;;19.50;79.10;;;;;;5049600;28;20021;-82
2021/07/06 13:22:42;;;;;;;1.35;0.93;;;;;;;;;;5049527;28;20036;-81
2021/07/06 13:25:08;;;;;;;1.00;0.60;;;;;;;;;;5048293;28;20021;-82
2021/07/06 13:27:34;;;;;;;0.75;0.52;;;;;;;;;;5048363;28;20025;-83
2021/07/06 13:30:01;;;;;;;0.98;0.60;;;;;;;;;;5049359;28;20496;-83
2021/07/06 13:32:28;;;;;;;1.17;0.50;;;;;;;;;;5049288;28;20049;-81
2021/07/06 13:34:54;;;;;;;0.52;0.40;;;;;;;;;;5049235;28;20080;-82
2021/07/06 13:37:21;;;;;;;0.52;0.45;;;19.60;77.80;;;;;;5050099;28;20601;-82
2021/07/06 13:39:47;;;;;;;2.40;0.40;;;;;;;;;;5049074;28;20047;-82
2021/07/06 13:42:13;;;;;;;2.80;0.60;;;;;;;;;;5048967;28;20121;-84
2021/07/06 13:44:39;;;;;;;0.65;0.60;;;;;;;;;;5024779;28;20093;-82
2021/07/06 13:47:08;;;;;;;4.28;0.70;;;;;;;;;;5049334;28;20037;-86
2021/07/06 13:49:35;;;;;;;2.72;0.80;;;;;;;;;;5050138;28;20017;-87
2021/07/06 13:52:01;;;;;;;2.80;0.50;;;;;;;;;;5050604;28;20036;-86
2021/07/06 13:54:29;;;;;;;2.80;1.08;;;;;;;;;;5049961;28;20029;-86
2021/07/06 13:57:00;;;;;;;2.60;0.52;;;;;;;;;;5048256;28;20036;-86
2021/07/06 13:59:27;;;;;;;1.25;0.60;;;;;;;;;;5048036;28;20029;-86
2021/07/06 14:01:53;;;;;;;0.93;0.53;;;;;;;;;;5048322;28;20118;-86
2021/07/06 14:04:19;;;;;;;2.85;0.65;;;;;;;;;;5049815;28;20056;-87
2021/07/06 14:06:47;;;;;;;3.22;0.77;;;;;;;;;;5030004;28;20540;-86
2021/07/06 14:09:13;;;;;;;6.32;0.73;;;;;;;;;;5048303;28;20032;-87
2021/07/06 14:11:39;;;;;;;1.48;0.77;;;;;;;;;;5026664;28;20033;-86
2021/07/06 14:14:05;;;;;;;1.95;0.93;;;;;;;;;;5048652;28;20094;-85
2021/07/06 14:16:31;;;;;;;4.55;0.70;;;;;;;;;;5031008;28;20035;-86
2021/07/06 14:18:57;;;;;;;0.98;0.60;;;;;;;;;;5048756;28;20033;-83
2021/07/06 14:21:23;;;;;;;1.77;1.27;;;;;;;;;;5046942;28;20028;-83
2021/07/06 14:23:49;;;;;;;1.48;0.88;;;;;;;;;;5024561;28;20372;-82
2021/07/06 14:26:15;;;;;;;2.40;0.80;;;;;;;;;;5048475;28;20124;-87
2021/07/06 14:28:44;;;;;;;1.15;0.63;;;;;;;;;;5047575;28;20112;-81
2021/07/06 14:31:11;;;;;;;3.70;0.60;;;;;;;;;;5025312;28;20095;-81
2021/07/06 14:33:37;;;;;;;1.17;0.50;;;;;;;;;;5044663;28;20045;-81
2021/07/06 14:36:03;;;;;;;0.50;0.50;;;;;;;;;;5047101;28;20079;-82
2021/07/06 14:38:29;;;;;;;3.42;0.63;;;;;;;;;;5047508;28;20040;-82